Time;durP1;ratioP1;P1;durP2;ratioP2;P2;SDS_P1;SDS_P2;PMS_P1;PMS_P2;Temp;Humidity;BMP_temperature;BMP_pressure;BME280_temperature;BME280_humidity;BME280_pressure;Samples;Min_cycle;Max_cycle;Signal;HPM_P1;HPM_P2
2023/07/23 00:00:06;;;;;;;25.75;20.35;;;;;;;-146.25;100.00;52212.06;2072013;28;34979;-67
2023/07/23 00:01:14;;;;;;;30.40;21.38;;;;;;;-146.25;100.00;52203.97;2071815;28;20181;-66
2023/07/23 00:02:19;;;;;;;28.95;20.85;;;;;;;-146.25;100.00;52187.75;2072094;28;33014;-67
2023/07/23 00:03:21;;;;;;;27.90;20.08;;;;;;;-146.25;100.00;52165.44;2071661;28;34090;-68
2023/07/23 00:04:25;;;;;;;30.92;21.52;;;;;;;-146.25;100.00;52187.75;2071514;28;34866;-67
2023/07/23 00:05:29;;;;;;;30.27;21.92;;;;;;;-146.25;100.00;52238.44;2071770;28;34940;-67
2023/07/23 00:06:33;;;;;;;30.95;21.17;;;;;;;-146.25;100.00;52175.56;2071641;28;36946;-67
2023/07/23 00:07:35;;;;;;;27.17;18.88;;;;;;;-146.25;100.00;52177.59;2071280;28;34592;-67
2023/07/23 00:08:37;;;;;;;24.33;19.25;;;;;;;-146.25;100.00;52181.66;2072735;28;20039;-67
2023/07/23 00:09:38;;;;;;;27.02;20.30;;;;;;;-146.25;100.00;52137.06;2072494;28;21194;-66
2023/07/23 00:10:40;;;;;;;28.08;20.75;;;;;;;-146.25;100.00;52218.16;2071709;28;36661;-67
2023/07/23 00:11:42;;;;;;;22.75;18.33;;;;;;;-146.25;100.00;52165.44;2071611;28;34399;-67
2023/07/23 00:12:44;;;;;;;27.40;21.15;;;;;;;-146.25;100.00;52218.16;2072075;28;34038;-67
2023/07/23 00:13:45;;;;;;;26.48;19.80;;;;;;;-146.25;100.00;52195.84;2071727;28;38745;-67
2023/07/23 00:14:47;;;;;;;29.58;19.45;;;;;;;-146.25;100.00;52203.97;2071957;28;20081;-66
2023/07/23 00:15:51;;;;;;;28.23;19.55;;;;;;;-146.25;100.00;52210.03;2063170;28;35082;-68
2023/07/23 00:16:55;;;;;;;27.08;19.33;;;;;;;-146.25;100.00;52191.81;2070304;28;34696;-67
2023/07/23 00:17:58;;;;;;;24.25;18.55;;;;;;;-146.25;100.00;52201.94;2071254;28;34288;-67
2023/07/23 00:19:00;;;;;;;30.45;19.70;;;;;;;-146.25;100.00;52191.81;2070946;28;36813;-67
2023/07/23 00:20:04;;;;;;;23.70;19.02;;;;;;;-146.25;100.00;52185.72;2072601;28;20045;-66
2023/07/23 00:21:05;;;;;;;24.08;18.30;;;;;;;-146.25;100.00;52228.28;2071790;28;30184;-66
2023/07/23 00:22:09;;;;;;;25.25;18.23;;;;;;;-146.25;100.00;52218.16;2070646;28;32835;-66
2023/07/23 00:23:11;;;;;;;23.92;17.77;;;;;;;-146.25;100.00;52191.81;2071680;28;20038;-66
2023/07/23 00:24:14;;;;;;;25.92;17.70;;;;;;;-146.25;100.00;52210.03;2071731;28;37742;-67
2023/07/23 00:25:16;;;;;;;23.00;17.85;;;;;;;-146.25;100.00;52208.03;2071577;28;38911;-66
2023/07/23 00:26:18;;;;;;;25.90;17.58;;;;;;;-146.25;100.00;52214.09;2069179;28;21146;-67
2023/07/23 00:27:20;;;;;;;25.17;18.08;;;;;;;-146.25;100.00;52210.03;2070079;28;29236;-67
2023/07/23 00:28:22;;;;;;;26.92;18.42;;;;;;;-146.25;100.00;52179.63;2071847;28;20081;-66
2023/07/23 00:29:24;;;;;;;25.33;17.30;;;;;;;-146.25;100.00;52203.97;2071311;28;20942;-66
2023/07/23 00:30:26;;;;;;;19.58;15.82;;;;;;;-146.25;100.00;52185.72;2070726;28;34050;-68
2023/07/23 00:31:30;;;;;;;23.35;16.35;;;;;;;-146.25;100.00;52218.16;2072214;28;20038;-67
2023/07/23 00:32:32;;;;;;;27.88;16.63;;;;;;;-146.25;100.00;52173.56;2070968;28;36317;-67
2023/07/23 00:33:36;;;;;;;24.73;16.75;;;;;;;-146.25;100.00;52218.16;2071368;28;20043;-66
2023/07/23 00:34:41;;;;;;;25.50;17.08;;;;;;;-146.25;100.00;52212.06;2071836;28;20050;-66
2023/07/23 00:35:43;;;;;;;21.35;16.23;;;;;;;-146.25;100.00;52191.81;2072372;28;20816;-66
2023/07/23 00:36:45;;;;;;;24.23;17.13;;;;;;;-146.25;100.00;52197.88;2072596;28;20120;-66
2023/07/23 00:37:48;;;;;;;24.95;16.70;;;;;;;-146.25;100.00;52193.81;2071795;28;30718;-66
2023/07/23 00:38:49;;;;;;;20.52;15.63;;;;;;;-146.25;100.00;52199.91;2070929;28;36485;-66
2023/07/23 00:39:51;;;;;;;22.88;16.25;;;;;;;-146.25;100.00;52224.25;2071154;28;34232;-66
2023/07/23 00:40:56;;;;;;;23.10;16.52;;;;;;;-146.25;100.00;52193.81;2071148;28;27949;-66
2023/07/23 00:41:57;;;;;;;24.05;16.85;;;;;;;-146.25;100.00;52226.25;2070968;28;21245;-66
2023/07/23 00:43:01;;;;;;;22.00;16.30;;;;;;;-146.25;100.00;52220.19;2071235;28;20038;-66
2023/07/23 00:44:06;;;;;;;26.02;16.52;;;;;;;-146.25;100.00;52203.97;2071787;28;20074;-66
2023/07/23 00:45:08;;;;;;;20.38;16.10;;;;;;;-146.25;100.00;52171.53;2079181;28;23921;-67
2023/07/23 00:46:10;;;;;;;25.23;15.95;;;;;;;-146.25;100.00;52201.94;2071615;28;31215;-66
2023/07/23 00:47:12;;;;;;;22.50;15.88;;;;;;;-146.25;100.00;52224.25;2072492;28;21032;-66
2023/07/23 00:48:14;;;;;;;19.90;15.48;;;;;;;-146.25;100.00;52212.06;2071554;28;32478;-66
2023/07/23 00:49:16;;;;;;;21.08;15.60;;;;;;;-146.25;100.00;52175.56;2071925;28;33134;-66
2023/07/23 00:50:18;;;;;;;20.35;15.55;;;;;;;-146.25;100.00;52232.34;2071631;28;20045;-66
2023/07/23 00:51:21;;;;;;;24.73;17.27;;;;;;;-146.25;100.00;52206.00;2071035;28;20039;-66
2023/07/23 00:52:23;;;;;;;19.23;15.52;;;;;;;-146.25;100.00;52206.00;2070887;28;31884;-68
2023/07/23 00:53:25;;;;;;;21.85;17.17;;;;;;;-146.25;100.00;52218.16;2072226;28;20042;-66
2023/07/23 00:54:27;;;;;;;22.73;16.00;;;;;;;-146.25;100.00;52214.09;2070855;28;28286;-66
2023/07/23 00:55:29;;;;;;;26.48;16.73;;;;;;;-146.25;100.00;52197.88;2071298;28;27855;-66
2023/07/23 00:56:31;;;;;;;19.20;16.48;;;;;;;-146.25;100.00;52191.81;2069962;28;33516;-66
2023/07/23 00:57:33;;;;;;;30.77;18.25;;;;;;;-146.25;100.00;52218.16;2071301;28;20096;-66
2023/07/23 00:58:35;;;;;;;23.50;17.10;;;;;;;-146.25;100.00;52185.72;2071230;28;26140;-66
2023/07/23 00:59:40;;;;;;;27.95;18.38;;;;;;;-146.25;100.00;52171.53;2062976;28;27943;-66
2023/07/23 01:00:42;;;;;;;23.63;17.58;;;;;;;-146.25;100.00;52175.56;2064377;28;20150;-66
2023/07/23 01:01:44;;;;;;;25.73;18.10;;;;;;;-146.25;100.00;52220.19;2098653;23;20046;-71
2023/07/23 01:02:46;;;;;;;22.90;16.80;;;;;;;-146.25;100.00;52173.56;2098593;28;28203;-72
2023/07/23 01:03:51;;;;;;;21.23;16.80;;;;;;;-146.25;100.00;52179.63;2088780;28;20862;-71
2023/07/23 01:04:54;;;;;;;24.52;17.67;;;;;;;-146.25;100.00;52195.84;2095589;28;32570;-71
2023/07/23 01:06:03;;;;;;;25.23;18.50;;;;;;;-146.25;100.00;52214.09;2088246;28;20108;-70
2023/07/23 01:07:07;;;;;;;24.73;18.05;;;;;;;-146.25;100.00;52195.84;2088978;28;28509;-72
2023/07/23 01:08:11;;;;;;;24.00;16.77;;;;;;;-146.25;100.00;52191.81;2087736;28;20940;-70
2023/07/23 01:09:14;;;;;;;25.92;17.98;;;;;;;-146.25;100.00;52230.31;2087888;28;20105;-71
2023/07/23 01:10:19;;;;;;;24.05;16.60;;;;;;;-146.25;100.00;52193.81;2087538;28;30710;-72
2023/07/23 01:11:26;;;;;;;26.05;17.63;;;;;;;-146.25;100.00;52191.81;2087531;28;20953;-71
2023/07/23 01:12:30;;;;;;;22.73;15.75;;;;;;;-146.25;100.00;52197.88;2072496;28;20038;-72
2023/07/23 01:13:35;;;;;;;26.42;16.67;;;;;;;-146.25;100.00;52191.81;2081401;28;20042;-72
2023/07/23 01:14:37;;;;;;;24.65;17.45;;;;;;;-146.25;100.00;52179.63;2087965;28;20396;-73
2023/07/23 01:15:40;;;;;;;22.42;16.55;;;;;;;-146.25;100.00;52189.78;2088243;28;20048;-73
2023/07/23 01:16:43;;;;;;;21.98;16.15;;;;;;;-146.25;100.00;52210.03;2087702;28;30037;-71
2023/07/23 01:17:46;;;;;;;21.63;15.18;;;;;;;-146.25;100.00;52226.25;2079621;28;25607;-72
2023/07/23 01:18:48;;;;;;;21.92;15.80;;;;;;;-146.25;100.00;52226.25;2080052;28;20050;-71
2023/07/23 01:20:05;;;;;;;25.00;15.55;;;;;;;-146.25;100.00;52214.09;2087865;28;20814;-71
2023/07/23 01:21:09;;;;;;;22.65;16.15;;;;;;;-146.25;100.00;52191.81;2079224;28;31170;-71
2023/07/23 01:22:11;;;;;;;23.20;15.98;;;;;;;-146.25;100.00;52175.56;2072948;28;31766;-71
2023/07/23 01:23:13;;;;;;;21.90;15.52;;;;;;;-146.25;100.00;52206.00;2087570;28;29205;-71
2023/07/23 01:24:17;;;;;;;24.60;16.63;;;;;;;-146.25;100.00;52222.22;2093193;28;20887;-72
2023/07/23 01:25:19;;;;;;;24.08;16.15;;;;;;;-146.25;100.00;52199.91;2096464;28;29516;-71
2023/07/23 01:26:21;;;;;;;21.80;15.57;;;;;;;-146.25;100.00;52193.81;2096218;28;26083;-71
2023/07/23 01:27:23;;;;;;;23.10;16.17;;;;;;;-146.25;100.00;52199.91;2095536;28;26838;-72
2023/07/23 01:28:24;;;;;;;24.10;16.65;;;;;;;-146.25;100.00;52208.03;2095926;28;21011;-72
2023/07/23 01:29:26;;;;;;;24.45;15.90;;;;;;;-146.25;100.00;52230.31;2096211;28;20901;-72
2023/07/23 01:30:28;;;;;;;23.45;16.70;;;;;;;-146.25;100.00;52181.66;2096765;28;20164;-72
2023/07/23 01:31:32;;;;;;;24.20;16.77;;;;;;;-146.25;100.00;52206.00;2095681;28;20040;-72
2023/07/23 01:32:36;;;;;;;25.27;16.95;;;;;;;-146.25;100.00;52193.81;2097286;28;27520;-71
2023/07/23 01:33:42;;;;;;;19.77;14.65;;;;;;;-146.25;100.00;52212.06;2097099;28;31400;-72
2023/07/23 01:34:45;;;;;;;22.15;15.95;;;;;;;-146.25;100.00;52167.47;2096534;28;20040;-71
2023/07/23 01:35:47;;;;;;;23.60;16.95;;;;;;;-146.25;100.00;52226.25;2087248;28;34876;-72
2023/07/23 01:36:50;;;;;;;24.45;16.55;;;;;;;-146.25;100.00;52163.41;2079271;28;24654;-72
2023/07/23 01:37:52;;;;;;;24.55;16.25;;;;;;;-146.25;100.00;52195.84;2071320;28;28929;-73
2023/07/23 01:38:57;;;;;;;24.65;16.20;;;;;;;-146.25;100.00;52208.03;2087809;28;20902;-72
2023/07/23 01:39:58;;;;;;;24.80;16.52;;;;;;;-146.25;100.00;52201.94;2096093;28;20111;-72
2023/07/23 01:41:01;;;;;;;24.13;16.95;;;;;;;-146.25;100.00;52203.97;2102933;28;25167;-72
2023/07/23 01:42:03;;;;;;;23.15;16.40;;;;;;;-146.25;100.00;52228.28;2095255;28;26840;-72
2023/07/23 01:43:06;;;;;;;28.70;17.05;;;;;;;-146.25;100.00;52195.84;2095396;28;20048;-72
2023/07/23 01:44:08;;;;;;;22.40;16.58;;;;;;;-146.25;100.00;52218.16;2088065;28;26440;-72
2023/07/23 01:45:13;;;;;;;27.48;16.90;;;;;;;-146.25;100.00;52201.94;2096029;28;22610;-72
2023/07/23 01:46:15;;;;;;;22.17;16.45;;;;;;;-146.25;100.00;52222.22;2095855;28;20060;-72
2023/07/23 01:47:17;;;;;;;22.70;15.95;;;;;;;-146.25;100.00;52199.91;2095763;28;25885;-72
2023/07/23 01:48:22;;;;;;;22.33;16.00;;;;;;;-146.25;100.00;52214.09;2096179;28;30665;-70
2023/07/23 01:49:24;;;;;;;19.73;16.20;;;;;;;-146.25;100.00;52195.84;2096620;28;20037;-71
2023/07/23 01:50:25;;;;;;;19.00;15.80;;;;;;;-146.25;100.00;52250.59;2103470;28;28678;-70
2023/07/23 01:51:27;;;;;;;25.13;17.20;;;;;;;-146.25;100.00;52250.59;2104018;28;25292;-71
2023/07/23 01:52:29;;;;;;;24.85;16.80;;;;;;;-146.25;100.00;52206.00;2103992;28;20043;-70
2023/07/23 01:53:31;;;;;;;21.42;16.48;;;;;;;-146.25;100.00;52179.63;2096111;28;25047;-72
2023/07/23 01:54:33;;;;;;;24.35;16.58;;;;;;;-146.25;100.00;52222.22;2096165;28;31212;-72
2023/07/23 01:55:37;;;;;;;20.42;15.40;;;;;;;-146.25;100.00;52191.81;2104046;28;20894;-70
2023/07/23 01:56:39;;;;;;;22.73;15.38;;;;;;;-146.25;100.00;52232.34;2103034;28;20138;-71
2023/07/23 01:57:45;;;;;;;21.23;16.08;;;;;;;-146.25;100.00;52193.81;2095815;28;20616;-71
2023/07/23 01:58:49;;;;;;;23.15;17.13;;;;;;;-146.25;100.00;52159.34;2095923;28;20076;-71
2023/07/23 01:59:51;;;;;;;25.65;16.70;;;;;;;-146.25;100.00;52214.09;2087212;28;33554;-71
2023/07/23 02:01:04;;;;;;;24.63;17.90;;;;;;;-146.25;100.00;52224.25;2087223;28;20046;-71
2023/07/23 02:02:09;;;;;;;25.05;16.75;;;;;;;-146.25;100.00;52208.03;2080515;28;23634;-71
2023/07/23 02:03:11;;;;;;;24.85;17.17;;;;;;;-146.25;100.00;52179.63;2079407;28;20173;-71
2023/07/23 02:04:12;;;;;;;26.15;17.05;;;;;;;-146.25;100.00;52232.34;2087847;28;20898;-71
2023/07/23 02:05:15;;;;;;;26.20;17.10;;;;;;;-146.25;100.00;52197.88;2095688;28;20979;-71
2023/07/23 02:06:19;;;;;;;25.63;17.48;;;;;;;-146.25;100.00;52226.25;2088262;28;20040;-71
2023/07/23 02:07:21;;;;;;;26.00;17.35;;;;;;;-146.25;100.00;52230.31;2087346;28;20045;-71
2023/07/23 02:08:23;;;;;;;25.23;17.27;;;;;;;-146.25;100.00;52222.22;2078983;28;28280;-72
2023/07/23 02:09:24;;;;;;;25.77;17.48;;;;;;;-146.25;100.00;52195.84;2078686;28;30434;-71
2023/07/23 02:10:28;;;;;;;25.75;18.58;;;;;;;-146.25;100.00;52214.09;2094564;28;27891;-71
2023/07/23 02:11:29;;;;;;;25.15;18.30;;;;;;;-146.25;100.00;52238.44;2104295;28;20086;-71
2023/07/23 02:12:33;;;;;;;24.35;18.40;;;;;;;-146.25;100.00;52222.22;2095714;28;24818;-71
2023/07/23 02:13:35;;;;;;;25.25;17.95;;;;;;;-146.25;100.00;52214.09;2096048;28;20964;-72
2023/07/23 02:14:37;;;;;;;25.52;17.63;;;;;;;-146.25;100.00;52203.97;2103853;28;20881;-72
2023/07/23 02:15:41;;;;;;;22.77;18.27;;;;;;;-146.25;100.00;52183.69;2087300;28;20046;-73
2023/07/23 02:16:43;;;;;;;24.70;18.77;;;;;;;-146.25;100.00;52208.03;2095438;28;20045;-71
2023/07/23 02:17:45;;;;;;;22.48;17.85;;;;;;;-146.25;100.00;52210.03;2094890;28;28915;-72
2023/07/23 02:18:47;;;;;;;23.30;17.75;;;;;;;-146.25;100.00;52226.25;2095716;28;20587;-71
2023/07/23 02:19:49;;;;;;;23.13;18.17;;;;;;;-146.25;100.00;52206.00;2104134;28;20921;-72
2023/07/23 02:20:51;;;;;;;23.02;18.13;;;;;;;-146.25;100.00;52153.28;2104140;28;28058;-74
2023/07/23 02:21:53;;;;;;;24.20;19.05;;;;;;;-146.25;100.00;52181.66;2103584;28;32138;-72
2023/07/23 02:22:54;;;;;;;24.45;16.70;;;;;;;-146.25;100.00;52218.16;2104235;28;20045;-73
2023/07/23 02:23:56;;;;;;;24.42;16.00;;;;;;;-146.25;100.00;52230.31;2103809;28;28250;-73
2023/07/23 02:24:58;;;;;;;24.55;17.02;;;;;;;-146.25;100.00;52208.03;2095442;28;24011;-73
2023/07/23 02:26:00;;;;;;;22.75;17.27;;;;;;;-146.25;100.00;52203.97;2095590;28;20792;-73
2023/07/23 02:27:01;;;;;;;27.20;18.48;;;;;;;-146.25;100.00;52218.16;2087707;28;20172;-73
2023/07/23 02:28:04;;;;;;;25.25;18.63;;;;;;;-146.25;100.00;52218.16;2087123;28;29061;-73
2023/07/23 02:29:06;;;;;;;23.67;18.88;;;;;;;-146.25;100.00;52238.44;2095728;28;20287;-72
2023/07/23 02:30:09;;;;;;;23.25;17.88;;;;;;;-146.25;100.00;52218.16;2096592;28;20037;-74
2023/07/23 02:31:11;;;;;;;25.13;17.90;;;;;;;-146.25;100.00;52248.56;2095995;28;22936;-74
2023/07/23 02:32:16;;;;;;;27.08;18.58;;;;;;;-146.25;100.00;52214.09;2097999;28;20898;-73
2023/07/23 02:33:17;;;;;;;24.60;19.13;;;;;;;-146.25;100.00;52203.97;2096740;28;27789;-71
2023/07/23 02:34:19;;;;;;;25.60;18.75;;;;;;;-146.25;100.00;52214.09;2088963;28;21494;-72
2023/07/23 02:35:21;;;;;;;25.17;17.50;;;;;;;-146.25;100.00;52201.94;2088493;28;20282;-73
2023/07/23 02:36:23;;;;;;;26.88;19.15;;;;;;;-146.25;100.00;52210.03;2088643;28;26055;-72
2023/07/23 02:37:24;;;;;;;29.05;19.08;;;;;;;-146.25;100.00;52234.38;2096900;28;26618;-73
2023/07/23 02:38:26;;;;;;;27.27;18.05;;;;;;;-146.25;100.00;52226.25;2096998;28;31899;-74
2023/07/23 02:39:28;;;;;;;24.92;18.00;;;;;;;-146.25;100.00;52226.25;2088939;28;20046;-73
2023/07/23 02:40:33;;;;;;;21.40;16.50;;;;;;;-146.25;100.00;52232.34;2087779;28;25598;-73
2023/07/23 02:41:35;;;;;;;25.20;18.30;;;;;;;-146.25;100.00;52220.19;2088779;28;33071;-74
2023/07/23 02:42:40;;;;;;;30.45;18.73;;;;;;;-146.25;100.00;52224.25;2089459;28;20053;-74
2023/07/23 02:43:41;;;;;;;25.63;18.30;;;;;;;-146.25;100.00;52240.47;2097001;28;20030;-72
2023/07/23 02:44:43;;;;;;;26.15;17.67;;;;;;;-146.25;100.00;52203.97;2096836;28;23896;-75
2023/07/23 02:45:45;;;;;;;26.05;18.45;;;;;;;-146.25;100.00;52206.00;2097434;28;20044;-76
2023/07/23 02:46:47;;;;;;;25.73;18.48;;;;;;;-146.25;100.00;52230.31;2097474;28;26473;-75
2023/07/23 02:47:49;;;;;;;27.48;19.15;;;;;;;-146.25;100.00;52226.25;2097244;28;20064;-77
2023/07/23 02:48:50;;;;;;;26.02;18.58;;;;;;;-146.25;100.00;52197.88;2096609;28;24042;-78
2023/07/23 02:49:52;;;;;;;29.80;18.13;;;;;;;-146.25;100.00;52210.03;2097267;28;30146;-76
2023/07/23 02:50:54;;;;;;;26.77;19.08;;;;;;;-146.25;100.00;52226.25;2104951;28;28937;-76
2023/07/23 02:51:56;;;;;;;26.58;18.92;;;;;;;-146.25;100.00;52232.34;2105272;28;20048;-76
2023/07/23 02:52:58;;;;;;;26.73;18.92;;;;;;;-146.25;100.00;52222.22;2105485;28;20109;-76
2023/07/23 02:54:01;;;;;;;29.02;19.17;;;;;;;-146.25;100.00;52214.09;2105184;28;24344;-76
2023/07/23 02:55:03;;;;;;;26.35;19.02;;;;;;;-146.25;100.00;52244.50;2097207;28;20041;-78
2023/07/23 02:56:05;;;;;;;25.80;19.25;;;;;;;-146.25;100.00;52264.78;2097019;28;20049;-77
2023/07/23 02:57:06;;;;;;;31.98;18.75;;;;;;;-146.25;100.00;52234.38;2105000;28;20159;-78
2023/07/23 02:58:10;;;;;;;26.90;18.55;;;;;;;-146.25;100.00;52222.22;2104660;28;27705;-76
2023/07/23 02:59:12;;;;;;;27.70;19.33;;;;;;;-146.25;100.00;52212.06;2096509;28;24110;-76
2023/07/23 03:00:14;;;;;;;22.77;19.13;;;;;;;-146.25;100.00;52218.16;2087935;28;20056;-76
2023/07/23 03:01:16;;;;;;;29.60;20.00;;;;;;;-146.25;100.00;52193.81;2088707;28;20045;-77
2023/07/23 03:02:19;;;;;;;27.05;19.02;;;;;;;-146.25;100.00;52224.25;2105311;28;20049;-76
2023/07/23 03:03:23;;;;;;;25.73;18.40;;;;;;;-146.25;100.00;52206.00;2096331;28;20041;-74
2023/07/23 03:04:26;;;;;;;23.38;16.77;;;;;;;-146.25;100.00;52183.69;2097435;28;20135;-76
2023/07/23 03:05:28;;;;;;;26.90;17.80;;;;;;;-146.25;100.00;52232.34;2096892;28;24086;-76
2023/07/23 03:06:30;;;;;;;26.65;17.33;;;;;;;-146.25;100.00;52238.44;2096484;28;29136;-75
2023/07/23 03:07:34;;;;;;;27.63;17.35;;;;;;;-146.25;100.00;52201.94;2097577;28;20150;-75
2023/07/23 03:08:36;;;;;;;25.77;17.52;;;;;;;-146.25;100.00;52220.19;2096611;28;20053;-76
2023/07/23 03:09:38;;;;;;;29.73;17.75;;;;;;;-146.25;100.00;52191.81;2097255;28;21815;-75
2023/07/23 03:10:40;;;;;;;26.92;17.55;;;;;;;-146.25;100.00;52208.03;2104996;28;22981;-76
2023/07/23 03:11:42;;;;;;;25.13;17.13;;;;;;;-146.25;100.00;52197.88;2104629;28;28830;-76
2023/07/23 03:12:44;;;;;;;25.20;16.80;;;;;;;-146.25;100.00;52187.75;2097343;28;26644;-75
2023/07/23 03:13:46;;;;;;;23.80;16.85;;;;;;;-146.25;100.00;52248.56;2105051;28;20044;-76
2023/07/23 03:14:48;;;;;;;26.27;17.45;;;;;;;-146.25;100.00;52216.13;2088879;28;27545;-75
2023/07/23 03:15:50;;;;;;;24.45;17.67;;;;;;;-146.25;100.00;52177.59;2088446;28;20049;-75
2023/07/23 03:16:52;;;;;;;21.25;17.02;;;;;;;-146.25;100.00;52232.34;2088725;28;24184;-75
2023/07/23 03:17:54;;;;;;;24.65;16.65;;;;;;;-146.25;100.00;52165.44;2089567;28;20207;-76
2023/07/23 03:18:55;;;;;;;23.85;16.67;;;;;;;-146.25;100.00;52230.31;2088966;28;24402;-77
2023/07/23 03:19:57;;;;;;;22.95;16.23;;;;;;;-146.25;100.00;52230.31;2089027;28;28520;-77
2023/07/23 03:20:59;;;;;;;22.73;16.27;;;;;;;-146.25;100.00;52260.72;2088363;28;20030;-78
2023/07/23 03:22:01;;;;;;;22.33;16.23;;;;;;;-146.25;100.00;52193.81;2079944;28;20121;-77
2023/07/23 03:23:04;;;;;;;20.90;15.52;;;;;;;-146.25;100.00;52242.50;2089978;28;20131;-76
2023/07/23 03:24:06;;;;;;;23.45;16.35;;;;;;;-146.25;100.00;52216.13;2088469;28;27308;-76
2023/07/23 03:25:10;;;;;;;22.25;15.40;;;;;;;-146.25;100.00;52201.94;2089148;28;22380;-76
2023/07/23 03:26:12;;;;;;;23.70;15.85;;;;;;;-146.25;100.00;52210.03;2096341;28;32192;-75
2023/07/23 03:27:14;;;;;;;20.05;15.35;;;;;;;-146.25;100.00;52224.25;2096886;28;20073;-77
2023/07/23 03:28:15;;;;;;;21.67;14.52;;;;;;;-146.25;100.00;52260.72;2096606;28;20037;-76
2023/07/23 03:29:17;;;;;;;19.00;14.60;;;;;;;-146.25;100.00;52240.47;2096904;28;26141;-75
2023/07/23 03:30:19;;;;;;;20.77;14.95;;;;;;;-146.25;100.00;52222.22;2088839;28;20732;-76
2023/07/23 03:31:21;;;;;;;23.13;15.25;;;;;;;-146.25;100.00;52222.22;2088076;28;20053;-76
2023/07/23 03:32:23;;;;;;;24.25;14.30;;;;;;;-146.25;100.00;52210.03;2080360;28;20172;-77
2023/07/23 03:33:26;;;;;;;22.20;14.73;;;;;;;-146.25;100.00;52238.44;2079708;28;29982;-78
2023/07/23 03:34:29;;;;;;;19.13;13.82;;;;;;;-146.25;100.00;52187.75;2088063;28;29925;-77
2023/07/23 03:35:31;;;;;;;21.08;15.55;;;;;;;-146.25;100.00;52218.16;2094770;28;31229;-77
2023/07/23 03:36:33;;;;;;;23.30;15.25;;;;;;;-146.25;100.00;52240.47;2097442;28;21625;-77
2023/07/23 03:37:34;;;;;;;21.70;14.55;;;;;;;-146.25;100.00;52193.81;2096946;28;29894;-77
2023/07/23 03:38:36;;;;;;;21.30;15.02;;;;;;;-146.25;100.00;52214.09;2097352;28;20033;-77
2023/07/23 03:39:38;;;;;;;21.90;15.65;;;;;;;-146.25;100.00;52226.25;2097668;28;20034;-77
2023/07/23 03:40:40;;;;;;;21.27;14.52;;;;;;;-146.25;100.00;52193.81;2105280;28;20037;-75
2023/07/23 03:41:44;;;;;;;20.73;14.57;;;;;;;-146.25;100.00;52183.69;2095117;28;20049;-75
2023/07/23 03:42:45;;;;;;;22.20;14.48;;;;;;;-146.25;100.00;52236.41;2087494;28;20160;-75
2023/07/23 03:43:47;;;;;;;20.92;14.75;;;;;;;-146.25;100.00;52250.59;2088013;28;29319;-76
2023/07/23 03:44:49;;;;;;;23.55;14.20;;;;;;;-146.25;100.00;52218.16;2087935;28;29280;-75
2023/07/23 03:45:51;;;;;;;20.98;14.07;;;;;;;-146.25;100.00;52254.66;2096075;28;36108;-77
2023/07/23 03:47:13;;;;;;;21.38;14.20;;;;;;;-146.25;100.00;52248.56;2096589;28;20127;-75
2023/07/23 03:48:15;;;;;;;19.02;13.73;;;;;;;-146.25;100.00;52212.06;2088138;28;20077;-77
2023/07/23 03:49:19;;;;;;;23.35;14.38;;;;;;;-146.25;100.00;52254.66;2089485;28;20254;-75
2023/07/23 03:50:21;;;;;;;22.95;13.88;;;;;;;-146.25;100.00;52220.19;2096464;28;23750;-76
2023/07/23 03:51:23;;;;;;;20.35;14.02;;;;;;;-146.25;100.00;52228.28;2096347;28;30037;-75
2023/07/23 03:52:25;;;;;;;20.55;14.20;;;;;;;-146.25;100.00;52218.16;2097850;28;20784;-75
2023/07/23 03:53:26;;;;;;;19.50;13.50;;;;;;;-146.25;100.00;52252.63;2104459;28;29105;-75
2023/07/23 03:54:28;;;;;;;22.95;14.20;;;;;;;-146.25;100.00;52254.66;2095941;28;36032;-77
2023/07/23 03:55:30;;;;;;;21.88;14.13;;;;;;;-146.25;100.00;52230.31;2096076;28;32341;-75
2023/07/23 03:56:32;;;;;;;19.70;13.95;;;;;;;-146.25;100.00;52232.34;2103833;28;30226;-76
2023/07/23 03:57:33;;;;;;;20.67;13.73;;;;;;;-146.25;100.00;52201.94;2096282;28;20116;-76
2023/07/23 03:58:37;;;;;;;22.05;13.88;;;;;;;-146.25;100.00;52230.31;2079705;28;23807;-76
2023/07/23 03:59:43;;;;;;;21.00;13.70;;;;;;;-146.25;100.00;52222.22;2087918;28;31545;-77
2023/07/23 04:00:45;;;;;;;18.05;13.43;;;;;;;-146.25;100.00;52226.25;2088493;28;20045;-75
2023/07/23 04:01:47;;;;;;;19.83;14.48;;;;;;;-146.25;100.00;52246.53;2087819;28;22015;-74
2023/07/23 04:02:49;;;;;;;19.77;13.20;;;;;;;-146.25;100.00;52206.00;2088998;28;20107;-75
2023/07/23 04:03:51;;;;;;;18.90;13.57;;;;;;;-146.25;100.00;52222.22;2096097;28;20049;-75
2023/07/23 04:04:53;;;;;;;18.20;13.45;;;;;;;-146.25;100.00;52230.31;2096054;28;30146;-75
2023/07/23 04:05:56;;;;;;;20.02;13.45;;;;;;;-146.25;100.00;52250.59;2088292;28;20034;-75
2023/07/23 04:06:58;;;;;;;21.75;14.00;;;;;;;-146.25;100.00;52226.25;2079959;28;24946;-75
2023/07/23 04:08:00;;;;;;;22.95;13.85;;;;;;;-146.25;100.00;52230.31;2088401;28;20164;-76
2023/07/23 04:09:02;;;;;;;23.52;14.38;;;;;;;-146.25;100.00;52238.44;2096111;28;20084;-75
2023/07/23 04:10:04;;;;;;;18.95;13.50;;;;;;;-146.25;100.00;52218.16;2088154;28;20044;-74
2023/07/23 04:11:07;;;;;;;19.23;13.90;;;;;;;-146.25;100.00;52222.22;2087614;28;25436;-76
2023/07/23 04:12:11;;;;;;;19.00;13.13;;;;;;;-146.25;100.00;52234.38;2095284;28;25000;-76
2023/07/23 04:13:13;;;;;;;20.05;12.82;;;;;;;-146.25;100.00;52216.13;2087800;28;33350;-75
2023/07/23 04:14:15;;;;;;;22.00;12.93;;;;;;;-146.25;100.00;52254.66;2088125;28;27557;-74
2023/07/23 04:15:17;;;;;;;18.45;13.02;;;;;;;-146.25;100.00;52242.50;2095620;28;36494;-75
2023/07/23 04:16:20;;;;;;;16.83;12.77;;;;;;;-146.25;100.00;52244.50;2096650;28;20171;-77
2023/07/23 04:17:22;;;;;;;17.65;12.20;;;;;;;-146.25;100.00;52248.56;2096497;28;20061;-75
2023/07/23 04:18:48;;;;;;;18.38;12.32;;;;;;;-146.25;100.00;52212.06;2096177;28;20049;-74
2023/07/23 04:19:50;;;;;;;15.68;12.68;;;;;;;-146.25;100.00;52262.75;2080180;28;20042;-75
2023/07/23 04:20:51;;;;;;;21.35;12.60;;;;;;;-146.25;100.00;52283.03;2080384;28;32151;-74
2023/07/23 04:21:56;;;;;;;17.25;13.13;;;;;;;-146.25;100.00;52218.16;2096255;28;28738;-75
2023/07/23 04:23:00;;;;;;;21.27;12.93;;;;;;;-146.25;100.00;52214.09;2087796;28;20889;-75
2023/07/23 04:24:02;;;;;;;20.42;13.48;;;;;;;-146.25;100.00;52201.94;2087456;28;31344;-74
2023/07/23 04:25:06;;;;;;;18.40;12.98;;;;;;;-146.25;100.00;52234.38;2097315;28;20146;-74
2023/07/23 04:26:07;;;;;;;17.73;12.88;;;;;;;-146.25;100.00;52246.53;2087455;28;28649;-75
2023/07/23 04:27:09;;;;;;;17.23;12.90;;;;;;;-146.25;100.00;52264.78;2087775;28;33399;-74
2023/07/23 04:28:11;;;;;;;16.33;12.05;;;;;;;-146.25;100.00;52236.41;2087988;28;20038;-74
2023/07/23 04:29:13;;;;;;;18.60;11.75;;;;;;;-146.25;100.00;52240.47;2096025;28;26399;-75
2023/07/23 04:30:17;;;;;;;18.20;12.50;;;;;;;-146.25;100.00;52260.72;2104945;28;20186;-75
2023/07/23 04:31:19;;;;;;;15.23;11.43;;;;;;;-146.25;100.00;52258.72;2095930;28;25383;-75
2023/07/23 04:32:21;;;;;;;17.85;12.43;;;;;;;-146.25;100.00;52240.47;2096054;28;27630;-74
2023/07/23 04:33:22;;;;;;;18.65;12.98;;;;;;;-146.25;100.00;52236.41;2088149;28;27411;-74
2023/07/23 04:34:26;;;;;;;16.13;11.65;;;;;;;-146.25;100.00;52246.53;2088490;28;30337;-75
2023/07/23 04:35:28;;;;;;;16.50;11.88;;;;;;;-146.25;100.00;52208.03;2088699;28;20053;-74
2023/07/23 04:36:30;;;;;;;14.82;12.57;;;;;;;-146.25;100.00;52252.63;2096243;28;34279;-75
2023/07/23 04:37:31;;;;;;;16.98;12.60;;;;;;;-146.25;100.00;52228.28;2095683;28;25823;-76
2023/07/23 04:38:39;;;;;;;17.48;11.95;;;;;;;-146.25;100.00;52234.38;2095385;28;20048;-76